Time;durP1;ratioP1;P1;durP2;ratioP2;P2;SDS_P1;SDS_P2;PMS_P1;PMS_P2;Temp;Humidity;BMP_temperature;BMP_pressure;BME280_temperature;BME280_humidity;BME280_pressure;Samples;Min_cycle;Max_cycle;Signal;HPM_P1;HPM_P2
2021/12/24 00:04:09;;;;;;;23.15;13.25;;;;;;;4.88;100.00;99925.25;10387200;28;20305;-66
2021/12/24 00:09:33;;;;;;;27.50;13.75;;;;;;;4.90;100.00;99920.00;10372453;28;20062;-66
2021/12/24 00:15:01;;;;;;;25.88;13.82;;;;;;;4.94;100.00;99909.44;10388285;28;20075;-66
2021/12/24 00:37:24;;;;;;;29.77;14.18;;;;;;;5.11;100.00;99906.69;10400158;28;20125;-66
2021/12/24 00:42:52;;;;;;;25.95;13.98;;;;;;;5.13;100.00;99893.72;10362253;28;20046;-66
2021/12/24 00:48:16;;;;;;;24.25;13.70;;;;;;;5.16;100.00;99896.94;10362698;28;20089;-66
2021/12/24 00:59:00;;;;;;;27.80;13.63;;;;;;;5.21;100.00;99907.88;10407053;28;20501;-66
2021/12/24 01:04:21;;;;;;;24.98;13.65;;;;;;;5.24;100.00;99906.84;10388502;28;20514;-66
2021/12/24 01:09:46;;;;;;;25.60;13.70;;;;;;;5.26;100.00;99903.25;10442028;28;20048;-66
2021/12/24 01:15:09;;;;;;;24.02;13.73;;;;;;;5.28;100.00;99893.66;10392055;28;20052;-65
2021/12/24 01:26:11;;;;;;;25.10;14.32;;;;;;;5.39;100.00;99888.69;10449365;28;20048;-65
2021/12/24 01:42:55;;;;;;;30.42;15.93;;;;;;;5.47;100.00;99878.75;10421363;28;20439;-65
2021/12/24 01:48:17;;;;;;;29.85;15.02;;;;;;;5.50;100.00;99870.81;10429651;28;20050;-65
2021/12/24 01:53:41;;;;;;;24.73;14.32;;;;;;;5.53;100.00;99862.88;10355489;28;20053;-66
2021/12/24 01:59:03;;;;;;;22.48;13.77;;;;;;;5.55;100.00;99863.59;10427993;28;20053;-66
2021/12/24 02:04:25;;;;;;;24.35;13.00;;;;;;;5.60;100.00;99859.00;10353691;28;20046;-65
2021/12/24 02:09:46;;;;;;;22.67;13.55;;;;;;;5.62;100.00;99851.16;10413238;28;20045;-65
2021/12/24 02:15:20;;;;;;;26.30;12.77;;;;;;;5.67;100.00;99844.81;10420826;28;20041;-65
2021/12/24 02:32:03;;;;;;;20.77;11.68;;;;;;;5.78;100.00;99837.25;10425449;28;20041;-65
2021/12/24 02:37:25;;;;;;;17.40;10.95;;;;;;;5.85;100.00;99833.34;10421232;28;20053;-65
2021/12/24 02:42:52;;;;;;;15.57;10.73;;;;;;;5.89;100.00;99824.50;10410894;28;20050;-65
2021/12/24 02:48:47;;;;;;;17.35;9.85;;;;;;;5.90;100.00;99820.97;10407224;28;20591;-65
2021/12/24 02:53:57;;;;;;;18.23;10.05;;;;;;;6.00;100.00;99806.53;10423900;28;20041;-65
2021/12/24 02:59:26;;;;;;;15.27;9.57;;;;;;;5.98;100.00;99805.81;10372643;28;20049;-65
2021/12/24 03:04:47;;;;;;;14.88;9.30;;;;;;;6.03;100.00;99796.00;10408823;28;20053;-65
2021/12/24 03:10:14;;;;;;;15.73;9.50;;;;;;;6.05;100.00;99783.81;10420680;28;20078;-65
2021/12/24 03:15:38;;;;;;;;;;;;;;;6.10;100.00;99779.19;10422885;28;20061;-64
2021/12/24 03:26:40;;;;;;;11.52;7.63;;;;;;;6.16;100.00;99786.56;10396658;28;20041;-65
2021/12/24 03:32:03;;;;;;;11.27;6.72;;;;;;;6.21;100.00;99781.94;10395657;28;20363;-65
2021/12/24 03:37:25;;;;;;;8.85;6.10;;;;;;;6.25;100.00;99770.47;10397186;28;20417;-65
2021/12/24 03:42:46;;;;;;;8.02;6.07;;;;;;;6.30;100.00;99763.22;10364580;28;20091;-65
2021/12/24 03:48:18;;;;;;;9.55;6.47;;;;;;;6.32;100.00;99762.22;10370140;28;20478;-65
2021/12/24 03:59:20;;;;;;;8.30;5.70;;;;;;;6.37;100.00;99759.31;10388786;28;20045;-65
2021/12/24 04:04:42;;;;;;;7.55;5.82;;;;;;;6.44;100.00;99765.75;10425533;28;20489;-64
2021/12/24 04:10:13;;;;;;;8.10;6.07;;;;;;;6.48;100.00;99751.69;10405679;28;20061;-65
2021/12/24 04:15:36;;;;;;;7.57;6.03;;;;;;;6.49;100.00;99763.69;10409990;28;20050;-65
2021/12/24 04:26:40;;;;;;;7.32;5.72;;;;;;;6.55;100.00;99747.78;10354644;28;20057;-65
2021/12/24 04:33:10;;;;;;;6.78;5.38;;;;;;;6.55;100.00;99740.03;10358176;28;20049;-65
2021/12/24 04:38:13;;;;;;;7.18;5.38;;;;;;;6.58;100.00;99751.00;10352789;28;20060;-65
2021/12/24 05:11:42;;;;;;;6.63;5.40;;;;;;;6.78;100.00;99766.03;10350242;28;20383;-65
2021/12/24 05:17:32;;;;;;;6.85;5.13;;;;;;;6.76;100.00;99762.75;10426423;28;20057;-65
2021/12/24 05:22:45;;;;;;;6.45;4.80;;;;;;;6.79;100.00;99755.59;10408084;28;20049;-65
2021/12/24 05:28:07;;;;;;;5.40;4.30;;;;;;;6.87;100.00;99760.25;10366042;28;20406;-65
2021/12/24 05:33:29;;;;;;;5.25;4.35;;;;;;;6.86;100.00;99753.41;10360721;28;20140;-65
2021/12/24 05:38:51;;;;;;;5.68;4.13;;;;;;;6.83;100.00;99753.63;10347294;28;20061;-65
2021/12/24 05:44:16;;;;;;;5.07;4.18;;;;;;;6.95;100.00;99752.78;10360075;28;20112;-66
2021/12/24 05:49:38;;;;;;;5.35;4.15;;;;;;;6.97;100.00;99754.38;10360584;28;20057;-65
2021/12/24 05:55:00;;;;;;;5.50;3.95;;;;;;;6.99;100.00;99738.72;10401556;28;20135;-65
2021/12/24 06:00:22;;;;;;;5.57;4.00;;;;;;;7.08;100.00;99736.34;10420696;28;20088;-66
2021/12/24 06:05:45;;;;;;;4.78;3.72;;;;;;;7.11;100.00;99730.09;10393743;28;20068;-65
2021/12/24 06:11:07;;;;;;;4.22;3.40;;;;;;;7.13;100.00;99731.66;10371018;28;20069;-65
2021/12/24 06:16:28;;;;;;;3.92;3.47;;;;;;;7.13;100.00;99734.25;10439452;28;20452;-65
2021/12/24 06:21:50;;;;;;;4.03;3.38;;;;;;;7.13;100.00;99742.00;10345948;28;20058;-66
2021/12/24 06:27:12;;;;;;;4.35;3.58;;;;;;;7.14;100.00;99742.84;10350754;28;20394;-65
2021/12/24 06:32:34;;;;;;;4.18;3.20;;;;;;;7.14;100.00;99754.03;10365004;28;20145;-65
2021/12/24 06:37:56;;;;;;;3.25;2.80;;;;;;;7.10;100.00;99747.44;10358329;28;20061;-66
2021/12/24 06:43:18;;;;;;;3.22;2.63;;;;;;;7.12;100.00;99745.56;10358452;28;20167;-66
2021/12/24 06:48:41;;;;;;;2.55;2.35;;;;;;;7.05;100.00;99743.50;10372561;28;20522;-65
2021/12/24 06:54:04;;;;;;;3.13;2.83;;;;;;;7.06;100.00;99753.75;10397702;28;20049;-66
2021/12/24 06:59:27;;;;;;;3.85;2.20;;;;;;;7.05;100.00;99761.63;10374193;28;20548;-66
2021/12/24 07:04:49;;;;;;;2.20;2.00;;;;;;;7.08;100.00;99770.03;10367905;28;20060;-65
2021/12/24 07:10:11;;;;;;;2.03;1.83;;;;;;;7.00;100.00;99771.47;10370691;28;20061;-66
2021/12/24 07:15:33;;;;;;;2.38;2.17;;;;;;;7.03;100.00;99781.63;10396245;28;20046;-66
2021/12/24 07:20:55;;;;;;;1.95;1.85;;;;;;;7.04;100.00;99781.50;10357946;28;20057;-65
2021/12/24 07:26:16;;;;;;;2.90;2.00;;;;;;;6.95;100.00;99774.38;10343912;28;20053;-65
2021/12/24 07:31:38;;;;;;;2.45;2.20;;;;;;;6.92;100.00;99778.91;10356317;28;20521;-65
2021/12/24 07:37:00;;;;;;;1.90;1.80;;;;;;;6.77;100.00;99792.84;10355695;28;20486;-66
2021/12/24 07:42:23;;;;;;;1.60;1.50;;;;;;;6.57;100.00;99805.44;10362084;28;20054;-65
2021/12/24 07:47:54;;;;;;;1.65;1.20;;;;;;;6.26;100.00;99821.28;10358283;28;20749;-65
2021/12/24 07:53:20;;;;;;;1.00;1.00;;;;;;;6.09;100.00;99826.69;10393595;28;20048;-67
2021/12/24 07:58:41;;;;;;;2.10;1.90;;;;;;;6.04;100.00;99836.47;10438334;28;20501;-65
2021/12/24 08:04:03;;;;;;;4.43;1.90;;;;;;;5.92;100.00;99834.66;10367870;28;20376;-65
2021/12/24 08:09:25;;;;;;;5.20;2.22;;;;;;;5.84;100.00;99821.34;10386648;28;20318;-65
2021/12/24 08:14:47;;;;;;;2.58;1.92;;;;;;;5.73;100.00;99824.56;10394450;28;20421;-66
2021/12/24 08:20:11;;;;;;;2.20;2.00;;;;;;;5.76;100.00;99818.38;10389503;28;20053;-66
2021/12/24 08:25:32;;;;;;;2.78;2.53;;;;;;;5.70;100.00;99834.25;10374086;28;20057;-66
2021/12/24 08:30:55;;;;;;;3.53;2.67;;;;;;;5.63;100.00;99848.50;10424288;28;20071;-66
2021/12/24 08:36:17;;;;;;;4.25;3.65;;;;;;;5.64;100.00;99864.81;10356445;28;20042;-66
2021/12/24 08:41:41;;;;;;;5.88;4.70;;;;;;;5.44;100.00;99891.03;10357548;28;20053;-65
2021/12/24 08:47:05;;;;;;;6.60;4.80;;;;;;;5.02;100.00;99896.09;10376404;28;20417;-66
2021/12/24 08:52:27;;;;;;;6.90;5.03;;;;;;;5.03;100.00;99898.56;10371458;28;20041;-65
2021/12/24 08:57:48;;;;;;;7.03;5.25;;;;;;;4.78;100.00;99902.63;10406596;28;20061;-65
2021/12/24 09:03:10;;;;;;;5.88;4.15;;;;;;;4.68;100.00;99905.78;10403585;28;20056;-65
2021/12/24 09:08:31;;;;;;;4.95;4.22;;;;;;;4.71;100.00;99908.19;10375624;28;20058;-64
2021/12/24 09:13:53;;;;;;;6.05;4.38;;;;;;;4.73;100.00;99913.19;10355034;28;20050;-65
2021/12/24 09:19:20;;;;;;;5.82;4.13;;;;;;;4.77;100.00;99917.28;10359482;28;20429;-66
2021/12/24 09:24:43;;;;;;;5.90;4.10;;;;;;;4.72;100.00;99924.44;10365138;28;20049;-65
2021/12/24 09:30:06;;;;;;;6.32;4.38;;;;;;;4.68;100.00;99926.44;10373805;28;20564;-65
2021/12/24 09:35:29;;;;;;;7.60;3.58;;;;;;;4.73;100.00;99930.41;10375740;28;20042;-65
2021/12/24 09:40:51;;;;;;;7.78;3.80;;;;;;;4.74;100.00;99934.66;10364796;28;20414;-65
2021/12/24 09:46:13;;;;;;;4.63;3.67;;;;;;;4.53;100.00;99937.59;10352733;28;20042;-65
2021/12/24 09:51:37;;;;;;;6.25;3.50;;;;;;;4.58;100.00;99945.94;10353924;28;20131;-65
2021/12/24 09:57:01;;;;;;;4.80;3.55;;;;;;;4.50;100.00;99958.44;10353609;28;20045;-66
2021/12/24 10:02:28;;;;;;;4.10;3.58;;;;;;;4.45;100.00;99973.31;10371082;28;20062;-66
2021/12/24 10:07:50;;;;;;;5.82;3.97;;;;;;;4.43;100.00;99969.97;10376342;28;20065;-65
2021/12/24 10:13:32;;;;;;;4.68;3.65;;;;;;;4.41;100.00;99970.06;10367605;28;20047;-65
2021/12/24 10:18:58;;;;;;;5.85;3.88;;;;;;;4.37;100.00;99988.34;10366550;28;20060;-65
2021/12/24 10:24:26;;;;;;;11.25;5.05;;;;;;;4.27;100.00;99993.19;10353742;28;20050;-65
2021/12/24 10:29:48;;;;;;;8.05;4.75;;;;;;;4.28;100.00;100006.91;10340334;28;20054;-65
2021/12/24 10:35:24;;;;;;;10.85;5.60;;;;;;;4.30;100.00;100002.50;10355473;28;20050;-66
2021/12/24 10:40:58;;;;;;;8.73;4.97;;;;;;;4.29;100.00;99998.25;10363989;28;20054;-65
2021/12/24 10:46:24;;;;;;;8.27;5.13;;;;;;;4.26;100.00;99990.66;10379812;28;20046;-65
2021/12/24 10:52:13;;;;;;;6.25;4.80;;;;;;;4.48;100.00;100001.53;10367051;28;20066;-65
2021/12/24 10:57:37;;;;;;;7.68;4.53;;;;;;;4.49;100.00;100018.69;10343953;28;20390;-66
2021/12/24 11:03:04;;;;;;;4.85;3.95;;;;;;;4.46;100.00;100011.09;10349548;28;20052;-65
2021/12/24 11:08:27;;;;;;;6.15;4.72;;;;;;;4.47;100.00;99997.28;10378686;28;20057;-66
2021/12/24 11:13:49;;;;;;;8.52;5.10;;;;;;;4.54;100.00;100001.19;10410510;28;20053;-65
2021/12/24 11:19:10;;;;;;;7.32;5.32;;;;;;;4.67;100.00;100007.34;10415166;28;20509;-65
2021/12/24 11:24:34;;;;;;;6.80;4.68;;;;;;;4.80;100.00;100004.88;10350524;28;20521;-64
2021/12/24 11:29:56;;;;;;;8.52;4.82;;;;;;;4.73;100.00;100019.03;10339577;28;20161;-64
2021/12/24 11:35:18;;;;;;;5.60;4.15;;;;;;;4.69;100.00;100021.00;10351216;28;20447;-68
2021/12/24 11:40:40;;;;;;;6.78;4.05;;;;;;;4.75;100.00;100027.53;10350989;28;20096;-64
2021/12/24 11:46:08;;;;;;;7.25;4.25;;;;;;;4.60;100.00;100026.69;10350760;28;20072;-64
2021/12/24 11:51:40;;;;;;;5.38;4.38;;;;;;;4.57;100.00;100032.00;10337899;28;20104;-64
2021/12/24 11:57:02;;;;;;;5.63;4.40;;;;;;;4.62;100.00;100055.81;10368720;28;20141;-64
2021/12/24 12:02:34;;;;;;;9.25;4.90;;;;;;;4.61;100.00;100054.16;10352268;28;20046;-64
2021/12/24 12:08:25;;;;;;;5.53;4.30;;;;;;;4.52;100.00;100044.28;10368923;28;20105;-64
2021/12/24 12:13:51;;;;;;;5.13;4.15;;;;;;;4.60;100.00;100053.31;10352629;28;20537;-64
2021/12/24 12:19:25;;;;;;;9.40;5.50;;;;;;;4.70;100.00;100043.34;10357151;28;20773;-64
2021/12/24 12:24:58;;;;;;;6.32;4.45;;;;;;;4.56;100.00;100058.72;10394991;28;20681;-64
2021/12/24 12:30:19;;;;;;;7.20;4.97;;;;;;;4.44;100.00;100064.50;10408971;28;20060;-64
2021/12/24 12:36:04;;;;;;;10.13;5.10;;;;;;;4.54;100.00;100066.53;10404554;28;20470;-64
2021/12/24 12:41:33;;;;;;;9.65;6.05;;;;;;;4.58;100.00;100064.63;10403905;28;20088;-64
2021/12/24 12:47:36;;;;;;;9.90;5.43;;;;;;;4.54;100.00;100074.28;10394203;28;20053;-64
2021/12/24 12:53:22;;;;;;;7.70;6.00;;;;;;;4.63;100.00;100058.31;10344178;28;20045;-64
2021/12/24 12:59:06;;;;;;;8.98;5.30;;;;;;;4.55;100.00;100070.78;10362792;28;20069;-66
2021/12/24 13:04:28;;;;;;;9.95;6.63;;;;;;;4.66;100.00;100077.97;10380988;28;20045;-67
2021/12/24 13:09:51;;;;;;;10.80;6.70;;;;;;;4.69;100.00;100082.97;10403912;28;20050;-67
2021/12/24 13:15:16;;;;;;;7.80;6.35;;;;;;;4.72;100.00;100079.31;10420683;28;20052;-64
2021/12/24 13:22:26;;;;;;;8.40;6.33;;;;;;;4.69;100.00;100082.97;10418889;28;20152;-65
2021/12/24 13:26:33;;;;;;;9.57;5.88;;;;;;;4.63;100.00;100094.44;10400370;28;20308;-65
2021/12/24 13:31:55;;;;;;;;;;;;;;;4.61;100.00;100105.75;10350402;28;20050;-65
2021/12/24 13:37:17;;;;;;;10.65;7.20;;;;;;;4.57;100.00;100114.56;10369622;28;19932;-65
2021/12/24 13:42:45;;;;;;;11.60;7.55;;;;;;;4.75;100.00;100119.59;10361423;28;20064;-65
2021/12/24 13:48:17;;;;;;;6.93;5.43;;;;;;;4.79;100.00;100129.72;10362888;28;20054;-65
2021/12/24 13:59:26;;;;;;;7.75;6.05;;;;;;;4.66;100.00;100137.34;10360133;28;20057;-65
2021/12/24 14:04:59;;;;;;;11.07;7.30;;;;;;;4.62;100.00;100138.41;10381951;28;20417;-65
2021/12/24 14:10:22;;;;;;;13.43;8.20;;;;;;;4.71;100.00;100140.50;10359235;28;20053;-64
2021/12/24 14:16:02;;;;;;;11.93;7.80;;;;;;;4.73;100.00;100142.94;10399851;28;20048;-64
2021/12/24 14:27:00;;;;;;;8.57;6.68;;;;;;;4.72;100.00;100160.25;10359184;28;20053;-65
2021/12/24 14:32:34;;;;;;;10.68;7.03;;;;;;;4.72;100.00;100172.22;10359460;28;20050;-65
2021/12/24 14:38:05;;;;;;;8.82;6.88;;;;;;;4.65;100.00;100182.13;10358439;28;20050;-65
2021/12/24 14:43:33;;;;;;;9.52;6.22;;;;;;;4.67;100.00;100198.34;10358355;28;20073;-65
2021/12/24 14:49:04;;;;;;;10.57;6.80;;;;;;;4.65;100.00;100197.63;10358577;28;20046;-66
2021/12/24 14:54:26;;;;;;;14.23;9.18;;;;;;;4.79;100.00;100206.31;10400394;28;20041;-65
2021/12/24 14:59:48;;;;;;;15.57;9.98;;;;;;;4.65;100.00;100211.34;10385838;28;20057;-65
2021/12/24 15:05:09;;;;;;;17.77;11.27;;;;;;;4.75;100.00;100226.28;10404573;28;20052;-65
2021/12/24 15:10:32;;;;;;;13.38;9.18;;;;;;;4.78;100.00;100239.06;10412738;28;20058;-65
2021/12/24 15:15:57;;;;;;;17.02;10.95;;;;;;;4.69;100.00;100237.81;10421939;28;20041;-65
2021/12/24 15:21:23;;;;;;;13.15;9.15;;;;;;;4.64;100.00;100255.31;10411658;28;20453;-64
2021/12/24 15:26:45;;;;;;;14.63;9.77;;;;;;;4.66;100.00;100256.06;10358815;28;20520;-65
2021/12/24 15:32:07;;;;;;;13.45;8.93;;;;;;;4.74;100.00;100258.19;10356846;28;20469;-65
2021/12/24 15:37:29;;;;;;;10.55;8.07;;;;;;;4.74;100.00;100265.06;10356405;28;20052;-65
2021/12/24 15:42:52;;;;;;;13.90;8.63;;;;;;;4.70;100.00;100285.94;10397055;28;20045;-65
2021/12/24 15:48:14;;;;;;;13.48;8.65;;;;;;;4.70;100.00;100296.28;10376398;28;20514;-65
2021/12/24 15:53:36;;;;;;;11.75;8.07;;;;;;;4.75;100.00;100292.56;10386896;28;20500;-65
2021/12/24 15:58:58;;;;;;;9.25;6.85;;;;;;;4.63;100.00;100300.09;10356337;28;20057;-65
2021/12/24 16:04:20;;;;;;;10.43;7.80;;;;;;;4.58;100.00;100300.31;10358304;28;20049;-65
2021/12/24 16:09:44;;;;;;;12.23;8.40;;;;;;;4.58;100.00;100309.78;10400307;28;20605;-65
2021/12/24 16:15:08;;;;;;;9.82;7.43;;;;;;;4.49;100.00;100318.00;10412286;28;20048;-65
2021/12/24 16:20:29;;;;;;;11.32;7.28;;;;;;;4.42;100.00;100337.22;10408440;28;20053;-65
2021/12/24 16:25:52;;;;;;;11.98;7.40;;;;;;;4.41;100.00;100345.88;10346351;28;20504;-64
2021/12/24 16:31:13;;;;;;;9.60;4.07;;;;;;;3.76;100.00;100376.44;10358571;28;20054;-65
2021/12/24 16:36:35;;;;;;;7.50;3.83;;;;;;;3.33;100.00;100386.06;10354719;28;20414;-64
2021/12/24 16:41:57;;;;;;;5.38;3.83;;;;;;;3.09;100.00;100405.94;10354982;28;20371;-65
2021/12/24 16:47:19;;;;;;;6.95;3.65;;;;;;;2.95;100.00;100428.03;10369036;28;20052;-65
2021/12/24 16:52:40;;;;;;;11.73;4.50;;;;;;;2.95;100.00;100436.56;10373048;28;20059;-66
2021/12/24 16:58:05;;;;;;;9.13;4.57;;;;;;;2.87;100.00;100443.78;10373114;28;20042;-65
2021/12/24 17:03:27;;;;;;;8.55;4.63;;;;;;;2.64;100.00;100447.28;10345681;28;20605;-65
2021/12/24 17:08:49;;;;;;;11.32;4.90;;;;;;;2.62;100.00;100467.09;10413074;28;20058;-65
2021/12/24 17:14:11;;;;;;;11.75;5.07;;;;;;;2.62;100.00;100473.06;10402979;28;20053;-64
2021/12/24 17:19:34;;;;;;;9.52;5.65;;;;;;;2.81;100.00;100483.50;10392613;28;20065;-65
2021/12/24 17:24:56;;;;;;;15.55;5.53;;;;;;;2.72;100.00;100489.00;10360628;28;20064;-65
2021/12/24 17:30:21;;;;;;;10.25;5.97;;;;;;;2.57;100.00;100489.59;10366175;28;20054;-65
2021/12/24 17:35:43;;;;;;;10.77;6.35;;;;;;;2.66;100.00;100495.22;10364919;28;20038;-65
2021/12/24 17:41:04;;;;;;;10.65;6.35;;;;;;;2.53;100.00;100494.00;10353736;28;20042;-65
2021/12/24 17:46:26;;;;;;;13.18;6.80;;;;;;;2.46;100.00;100496.88;10347501;28;20050;-64
2021/12/24 17:51:49;;;;;;;13.15;7.70;;;;;;;2.52;100.00;100496.63;10363758;28;20054;-65
2021/12/24 17:57:11;;;;;;;11.65;6.97;;;;;;;2.41;100.00;100503.91;10362156;28;20084;-65
2021/12/24 18:02:37;;;;;;;14.82;6.32;;;;;;;2.30;100.00;100516.31;10361313;28;20054;-66
2021/12/24 18:07:59;;;;;;;10.02;5.95;;;;;;;2.35;100.00;100527.25;10412589;28;20080;-66
2021/12/24 18:13:29;;;;;;;8.55;3.85;;;;;;;2.16;100.00;100536.53;10398744;28;20543;-66
2021/12/24 18:18:51;;;;;;;9.32;2.65;;;;;;;1.97;100.00;100548.34;10408807;28;20045;-66
2021/12/24 18:24:13;;;;;;;7.13;1.85;;;;;;;1.93;100.00;100554.47;10361561;28;20054;-65
2021/12/24 18:29:36;;;;;;;4.57;1.88;;;;;;;1.85;100.00;100573.59;10360351;28;20061;-66
2021/12/24 18:35:02;;;;;;;7.35;1.50;;;;;;;1.79;100.00;100573.81;10359657;28;20478;-66
2021/12/24 18:40:24;;;;;;;5.00;1.63;;;;;;;1.76;100.00;100585.03;10354432;28;20085;-66
2021/12/24 18:45:47;;;;;;;4.05;1.42;;;;;;;1.68;100.00;100599.00;10358049;28;20059;-66
2021/12/24 18:51:08;;;;;;;10.00;1.67;;;;;;;1.66;100.00;100608.50;10358364;28;20596;-66
2021/12/24 18:56:31;;;;;;;3.65;1.55;;;;;;;1.64;100.00;100626.53;10406023;28;20065;-66
2021/12/24 19:01:52;;;;;;;5.63;1.98;;;;;;;1.59;100.00;100648.09;10357431;28;20713;-66
2021/12/24 19:07:14;;;;;;;3.20;1.52;;;;;;;1.58;100.00;100657.56;10360598;28;20514;-65
2021/12/24 19:12:36;;;;;;;7.22;2.00;;;;;;;1.51;100.00;100681.72;10388990;28;20049;-65
2021/12/24 19:17:58;;;;;;;5.70;1.35;;;;;;;1.53;100.00;100684.28;10432216;28;20045;-65
2021/12/24 19:23:21;;;;;;;7.90;1.30;;;;;;;1.38;100.00;100690.69;10408296;28;20053;-66
2021/12/24 19:28:43;;;;;;;6.32;1.50;;;;;;;1.37;100.00;100696.72;10355721;28;20406;-65
2021/12/24 19:34:04;;;;;;;3.17;1.48;;;;;;;1.30;100.00;100713.19;10355394;28;20053;-66
2021/12/24 19:39:27;;;;;;;5.78;1.35;;;;;;;1.36;100.00;100707.88;10356253;28;20059;-65
2021/12/24 19:44:49;;;;;;;10.70;1.40;;;;;;;1.21;100.00;100721.13;10355930;28;20053;-66
2021/12/24 19:50:11;;;;;;;4.15;1.40;;;;;;;1.19;100.00;100720.34;10343132;28;20049;-66
2021/12/24 19:55:34;;;;;;;8.18;1.35;;;;;;;1.03;100.00;100721.66;10420229;28;20040;-66
2021/12/24 20:00:55;;;;;;;11.77;1.10;;;;;;;0.90;100.00;100741.72;10381684;28;20050;-66
2021/12/24 20:06:17;;;;;;;7.13;1.45;;;;;;;1.03;100.00;100733.66;10393528;28;20100;-66
2021/12/24 20:11:39;;;;;;;5.88;1.20;;;;;;;0.85;99.77;100738.44;10356053;28;20057;-66
2021/12/24 20:17:02;;;;;;;4.53;1.38;;;;;;;0.86;100.00;100745.25;10390219;28;20490;-66
2021/12/24 20:22:24;;;;;;;4.38;1.20;;;;;;;0.76;97.26;100749.78;10355282;28;20054;-65
2021/12/24 20:27:46;;;;;;;8.27;1.02;;;;;;;0.81;96.51;100762.50;10355199;28;20050;-65
2021/12/24 20:33:08;;;;;;;4.43;0.82;;;;;;;0.74;97.73;100760.94;10354961;28;20058;-65
2021/12/24 20:38:30;;;;;;;4.28;0.63;;;;;;;0.69;96.20;100762.81;10357896;28;20501;-66
2021/12/24 20:43:51;;;;;;;7.13;1.08;;;;;;;0.66;94.15;100762.88;10362337;28;20054;-66
2021/12/24 20:49:14;;;;;;;4.32;0.50;;;;;;;0.50;88.40;100782.09;10349605;28;20046;-66
2021/12/24 20:54:35;;;;;;;3.45;0.77;;;;;;;0.61;89.99;100785.22;10411176;28;20481;-66
2021/12/24 20:59:57;;;;;;;6.50;0.80;;;;;;;0.48;88.55;100781.28;10413922;28;20483;-66
2021/12/24 21:05:20;;;;;;;3.50;0.57;;;;;;;0.49;87.71;100770.16;10392528;28;20063;-66
2021/12/24 21:10:44;;;;;;;6.10;1.08;;;;;;;0.45;87.84;100768.53;10375036;28;20041;-66
2021/12/24 21:16:06;;;;;;;3.47;1.00;;;;;;;0.26;84.89;100777.56;10418498;28;20049;-67
2021/12/24 21:21:28;;;;;;;6.97;1.00;;;;;;;0.33;84.45;100784.22;10405599;28;20057;-67
2021/12/24 21:26:50;;;;;;;3.50;0.85;;;;;;;0.35;84.80;100787.59;10400608;28;20049;-66
2021/12/24 21:32:13;;;;;;;4.63;0.80;;;;;;;0.23;84.75;100785.34;10348748;28;20050;-66
2021/12/24 21:37:35;;;;;;;2.00;0.90;;;;;;;0.22;87.62;100775.97;10361191;28;20042;-66
2021/12/24 21:42:57;;;;;;;3.83;1.10;;;;;;;0.09;84.30;100770.28;10361137;28;20061;-66
2021/12/24 21:48:20;;;;;;;1.75;0.80;;;;;;;0.18;89.90;100785.44;10359565;28;20050;-67
2021/12/24 21:53:43;;;;;;;5.95;1.30;;;;;;;0.09;88.42;100795.06;10364815;28;20133;-66
2021/12/24 21:59:06;;;;;;;4.28;0.82;;;;;;;0.01;84.18;100796.94;10346369;28;20111;-66
2021/12/24 22:04:57;;;;;;;4.65;0.70;;;;;;;0.11;88.38;100818.94;10364075;28;20081;-66
2021/12/24 22:10:19;;;;;;;3.95;0.68;;;;;;;0.04;89.45;100827.63;10363156;28;20045;-66
2021/12/24 22:15:40;;;;;;;2.60;0.80;;;;;;;-0.09;86.42;100831.31;10426081;28;20041;-67
2021/12/24 22:21:03;;;;;;;5.60;0.70;;;;;;;-0.08;84.50;100843.25;10384391;28;20060;-67
2021/12/24 22:26:24;;;;;;;1.50;0.52;;;;;;;-0.19;83.32;100847.78;10368131;28;20409;-67
2021/12/24 22:31:50;;;;;;;4.00;1.00;;;;;;;-0.02;88.83;100855.94;10399361;28;20501;-67
2021/12/24 22:37:14;;;;;;;7.25;1.17;;;;;;;-0.29;84.70;100861.63;10348597;28;20133;-67
2021/12/24 22:42:36;;;;;;;7.20;1.00;;;;;;;-0.17;88.76;100858.84;10354257;28;20060;-67
2021/12/24 22:47:58;;;;;;;6.25;0.80;;;;;;;-0.24;87.08;100877.75;10399019;28;20042;-67
2021/12/24 22:53:19;;;;;;;7.55;1.00;;;;;;;-0.27;88.72;100870.13;10398427;28;20053;-67
2021/12/24 22:58:41;;;;;;;2.15;0.80;;;;;;;-0.33;89.15;100877.09;10439105;28;20102;-67
2021/12/24 23:04:03;;;;;;;4.70;0.95;;;;;;;-0.73;82.91;100886.41;10340681;28;20064;-68
2021/12/24 23:09:25;;;;;;;1.55;0.68;;;;;;;-0.54;86.89;100883.47;10402466;28;20049;-67
2021/12/24 23:14:47;;;;;;;5.00;0.82;;;;;;;-0.63;86.61;100891.31;10383615;28;20064;-67
2021/12/24 23:20:13;;;;;;;2.55;0.85;;;;;;;-0.67;87.25;100897.38;10357550;28;20058;-66
2021/12/24 23:25:36;;;;;;;5.05;1.00;;;;;;;-0.61;89.11;100897.25;10345948;28;20066;-67
2021/12/24 23:30:57;;;;;;;1.00;0.98;;;;;;;-0.74;88.38;100890.69;10348092;28;20058;-67
2021/12/24 23:36:19;;;;;;;2.22;0.70;;;;;;;-0.80;86.17;100895.06;10345491;28;20057;-67
2021/12/24 23:41:42;;;;;;;1.92;0.73;;;;;;;-0.88;84.97;100900.31;10377491;28;20084;-67
2021/12/24 23:47:17;;;;;;;2.30;0.70;;;;;;;-1.07;78.77;100904.91;10356783;28;20041;-67
2021/12/24 23:52:44;;;;;;;1.07;0.73;;;;;;;-0.98;81.04;100914.97;10372790;28;20045;-67
2021/12/24 23:58:07;;;;;;;1.38;0.73;;;;;;;-1.04;81.90;100926.16;10436969;28;20297;-67
